Time;durP1;ratioP1;P1;durP2;ratioP2;P2;SDS_P1;SDS_P2;PMS_P1;PMS_P2;Temp;Humidity;BMP_temperature;BMP_pressure;BME280_temperature;BME280_humidity;BME280_pressure;Samples;Min_cycle;Max_cycle;Signal;HPM_P1;HPM_P2
2022/09/30 00:01:45;;;;;;;5.67;3.60;;;6.30;99.90;;;;;;4995495;28;20201;-68
2022/09/30 00:04:19;;;;;;;6.37;3.50;;;6.30;99.90;;;;;;4995422;28;20193;-68
2022/09/30 00:06:49;;;;;;;3.90;3.47;;;6.20;99.90;;;;;;4995532;28;20197;-68
2022/09/30 00:09:18;;;;;;;5.40;3.23;;;6.20;99.90;;;;;;4995530;28;20201;-68
2022/09/30 00:11:47;;;;;;;5.70;3.80;;;6.20;99.90;;;;;;4995237;28;20190;-68
2022/09/30 00:14:17;;;;;;;8.87;3.67;;;6.10;99.90;;;;;;4995265;28;20202;-68
2022/09/30 00:16:46;;;;;;;6.13;3.60;;;6.10;99.90;;;;;;4977946;28;20204;-67
2022/09/30 00:19:17;;;;;;;6.17;3.60;;;6.10;99.90;;;;;;4995365;28;20206;-69
2022/09/30 00:21:45;;;;;;;6.40;3.93;;;6.10;99.90;;;;;;4977989;28;20232;-68
2022/09/30 00:24:14;;;;;;;10.77;4.20;;;6.00;99.90;;;;;;4977681;28;20221;-67
2022/09/30 00:26:43;;;;;;;4.83;3.40;;;6.00;99.90;;;;;;4995189;28;20673;-68
2022/09/30 00:29:12;;;;;;;6.73;3.60;;;5.90;99.90;;;;;;4995029;28;20225;-67
2022/09/30 00:31:40;;;;;;;6.37;3.53;;;5.90;99.90;;;;;;4995048;28;20658;-67
2022/09/30 00:34:10;;;;;;;6.17;3.97;;;5.90;99.90;;;;;;4995017;28;20194;-69
2022/09/30 00:36:43;;;;;;;7.03;4.20;;;5.90;99.90;;;;;;4977390;28;20206;-68
2022/09/30 00:39:15;;;;;;;4.37;3.83;;;5.90;99.90;;;;;;4994951;28;20634;-69
2022/09/30 00:41:45;;;;;;;5.83;3.37;;;5.90;99.90;;;;;;4994825;28;20182;-68
2022/09/30 00:44:43;;;;;;;3.83;3.30;;;5.80;99.90;;;;;;4994587;28;20201;-67
2022/09/30 00:47:33;;;;;;;5.37;3.37;;;5.80;99.90;;;;;;4977352;28;20685;-67
2022/09/30 00:50:09;;;;;;;6.00;3.73;;;5.70;99.90;;;;;;4994682;28;20197;-65
2022/09/30 00:52:40;;;;;;;4.60;3.70;;;5.70;99.90;;;;;;4994589;28;20181;-66
2022/09/30 00:55:21;;;;;;;9.43;3.90;;;5.70;99.90;;;;;;4994922;28;20218;-66
2022/09/30 00:57:50;;;;;;;4.50;3.33;;;5.60;99.90;;;;;;4994322;28;20190;-68
2022/09/30 01:00:19;;;;;;;6.23;3.70;;;5.60;99.90;;;;;;4994355;28;20654;-67
2022/09/30 01:02:48;;;;;;;5.73;3.57;;;5.60;99.90;;;;;;4993995;28;20194;-68
2022/09/30 01:05:17;;;;;;;6.97;4.00;;;5.60;99.90;;;;;;4994306;28;20214;-68
2022/09/30 01:07:49;;;;;;;7.63;3.60;;;5.60;99.90;;;;;;4994306;28;20198;-68
2022/09/30 01:10:17;;;;;;;6.60;3.90;;;5.50;99.90;;;;;;4994309;28;20205;-69
2022/09/30 01:12:46;;;;;;;5.20;3.90;;;5.50;99.90;;;;;;4994144;28;20204;-68
2022/09/30 01:15:15;;;;;;;4.53;3.60;;;5.50;99.90;;;;;;4994049;28;20214;-67
2022/09/30 01:17:52;;;;;;;4.17;3.40;;;5.40;99.90;;;;;;4994029;28;20570;-68
2022/09/30 01:20:49;;;;;;;4.67;3.40;;;5.40;99.90;;;;;;4994130;28;20189;-69
2022/09/30 01:23:56;;;;;;;3.63;3.33;;;5.40;99.90;;;;;;4993931;28;20546;-68
2022/09/30 01:26:55;;;;;;;3.47;3.17;;;5.40;99.90;;;;;;4919865;28;20245;-69
2022/09/30 01:29:55;;;;;;;4.90;3.37;;;5.30;99.90;;;;;;4974390;28;20586;-69
2022/09/30 01:32:41;;;;;;;4.00;3.60;;;5.30;99.90;;;;;;4988669;28;20214;-68
2022/09/30 01:35:17;;;;;;;3.80;3.43;;;5.20;99.90;;;;;;4976391;28;20681;-68
2022/09/30 01:38:00;;;;;;;3.60;3.00;;;5.20;99.90;;;;;;4993583;28;20201;-69
2022/09/30 01:40:40;;;;;;;3.77;3.20;;;5.10;99.90;;;;;;4993704;28;20190;-68
2022/09/30 01:43:14;;;;;;;5.53;3.67;;;5.10;99.90;;;;;;4993513;28;20201;-69
2022/09/30 01:45:46;;;;;;;4.67;3.47;;;5.00;99.90;;;;;;4993515;28;20221;-69
2022/09/30 01:48:25;;;;;;;7.23;3.37;;;5.00;99.90;;;;;;4993430;28;20193;-70
2022/09/30 01:50:58;;;;;;;6.60;3.67;;;5.00;99.90;;;;;;4993534;28;20649;-68
2022/09/30 01:53:37;;;;;;;5.27;3.80;;;5.00;99.90;;;;;;4993441;28;20190;-69
2022/09/30 01:56:13;;;;;;;9.77;3.57;;;5.00;99.90;;;;;;4993266;28;20214;-69
2022/09/30 01:58:50;;;;;;;6.03;3.73;;;4.90;99.90;;;;;;4993440;28;20194;-69
2022/09/30 02:01:24;;;;;;;6.27;3.73;;;5.00;99.90;;;;;;4993439;28;20646;-70
2022/09/30 02:03:58;;;;;;;8.80;4.37;;;4.90;99.90;;;;;;4993342;28;20536;-69
2022/09/30 02:06:33;;;;;;;6.53;3.90;;;4.90;99.90;;;;;;4992552;28;20231;-68
2022/09/30 02:09:07;;;;;;;6.03;3.70;;;4.90;99.90;;;;;;4993104;28;20213;-68
2022/09/30 02:11:37;;;;;;;7.93;4.03;;;4.80;99.90;;;;;;4993166;28;20197;-68
2022/09/30 02:14:12;;;;;;;9.13;3.90;;;4.80;99.90;;;;;;4992145;28;20213;-68
2022/09/30 02:16:47;;;;;;;4.87;3.93;;;4.90;99.90;;;;;;4975844;28;20196;-68
2022/09/30 02:19:20;;;;;;;6.87;3.93;;;4.90;99.90;;;;;;4992974;28;20201;-67
2022/09/30 02:21:56;;;;;;;5.33;4.30;;;4.90;99.90;;;;;;4992988;28;20194;-68
2022/09/30 02:24:28;;;;;;;6.33;3.90;;;4.80;99.90;;;;;;4992912;28;20205;-69
2022/09/30 02:26:59;;;;;;;6.67;4.20;;;4.80;99.90;;;;;;4993044;28;20560;-69
2022/09/30 02:29:32;;;;;;;6.03;4.10;;;4.80;99.90;;;;;;4992797;28;20704;-68
2022/09/30 02:32:06;;;;;;;5.60;3.90;;;4.70;99.90;;;;;;4992930;28;20190;-68
2022/09/30 02:34:39;;;;;;;5.03;3.97;;;4.70;99.90;;;;;;4992819;28;20217;-69
2022/09/30 02:37:12;;;;;;;6.73;4.20;;;4.70;99.90;;;;;;4992777;28;20201;-67
2022/09/30 02:39:46;;;;;;;7.40;4.10;;;4.70;99.90;;;;;;4975550;28;20205;-68
2022/09/30 02:42:19;;;;;;;4.37;3.93;;;4.70;99.90;;;;;;4975309;28;20255;-67
2022/09/30 02:44:50;;;;;;;5.43;4.00;;;4.80;99.90;;;;;;4959210;28;20225;-67
2022/09/30 02:47:27;;;;;;;5.43;3.97;;;4.70;99.90;;;;;;4993190;28;20198;-68
2022/09/30 02:50:03;;;;;;;6.13;4.03;;;4.70;99.90;;;;;;4992814;28;20697;-68
2022/09/30 02:52:42;;;;;;;8.67;4.27;;;4.60;99.90;;;;;;4993074;28;20198;-67
2022/09/30 02:55:18;;;;;;;5.37;4.10;;;4.60;99.90;;;;;;4992909;28;20677;-67
2022/09/30 02:57:57;;;;;;;6.93;4.30;;;4.60;99.90;;;;;;4992751;28;20194;-67
2022/09/30 03:00:26;;;;;;;7.33;4.63;;;4.60;99.90;;;;;;4992904;28;20661;-67
2022/09/30 03:03:00;;;;;;;7.77;4.40;;;4.60;99.90;;;;;;4992770;28;20194;-67
2022/09/30 03:05:30;;;;;;;10.33;4.23;;;4.60;99.90;;;;;;4992711;28;20221;-67
2022/09/30 03:08:00;;;;;;;5.03;4.13;;;4.60;99.90;;;;;;4992744;28;20194;-68
2022/09/30 03:10:30;;;;;;;8.90;5.13;;;4.60;99.90;;;;;;4959332;28;20217;-67
2022/09/30 03:13:21;;;;;;;5.87;4.40;;;4.60;99.90;;;;;;4992743;28;20194;-68
2022/09/30 03:16:05;;;;;;;6.93;4.70;;;4.50;99.90;;;;;;4992640;28;20716;-67
2022/09/30 03:18:52;;;;;;;7.07;4.20;;;4.50;99.90;;;;;;4992172;28;20216;-67
2022/09/30 03:21:34;;;;;;;5.43;4.13;;;4.50;99.90;;;;;;4992692;28;20193;-67
2022/09/30 03:24:24;;;;;;;6.13;3.83;;;4.50;99.90;;;;;;4975334;28;20189;-68
2022/09/30 03:27:03;;;;;;;8.60;4.07;;;4.50;99.90;;;;;;4996189;28;20194;-69
2022/09/30 03:29:40;;;;;;;6.60;4.40;;;4.50;99.90;;;;;;4996054;28;20202;-69
2022/09/30 03:32:21;;;;;;;4.30;3.70;;;4.40;99.90;;;;;;4996041;28;20194;-68
2022/09/30 03:35:02;;;;;;;6.63;3.87;;;4.40;99.90;;;;;;4996262;28;20225;-69
2022/09/30 03:37:44;;;;;;;6.73;4.20;;;4.40;99.90;;;;;;4995876;28;20197;-69
2022/09/30 03:40:21;;;;;;;8.90;4.60;;;4.40;99.90;;;;;;4995887;28;20197;-69
2022/09/30 03:42:57;;;;;;;7.93;4.13;;;4.40;99.90;;;;;;4995882;28;20182;-69
2022/09/30 03:45:31;;;;;;;4.93;4.40;;;4.40;99.90;;;;;;4995883;28;20244;-67
2022/09/30 03:48:05;;;;;;;7.63;4.57;;;4.50;99.90;;;;;;4995758;28;20204;-67
2022/09/30 03:50:36;;;;;;;14.67;5.50;;;4.40;99.90;;;;;;4995696;28;20210;-66
2022/09/30 03:53:11;;;;;;;16.50;5.80;;;4.50;99.90;;;;;;4995684;28;20190;-67
2022/09/30 03:55:48;;;;;;;10.23;5.67;;;4.50;99.90;;;;;;4995726;28;20225;-67
2022/09/30 03:58:17;;;;;;;22.83;11.37;;;4.50;99.90;;;;;;4995582;28;20205;-67
2022/09/30 04:00:49;;;;;;;17.27;10.37;;;4.60;99.90;;;;;;4995451;28;20214;-67
2022/09/30 04:03:19;;;;;;;10.93;7.03;;;4.60;99.90;;;;;;4995530;28;20186;-68
2022/09/30 04:05:48;;;;;;;16.93;7.73;;;4.60;99.90;;;;;;4995310;28;20220;-68
2022/09/30 04:08:18;;;;;;;16.73;9.10;;;4.70;99.90;;;;;;4995395;28;20564;-66
2022/09/30 04:10:47;;;;;;;16.33;10.10;;;4.60;99.90;;;;;;4994449;28;20233;-67
2022/09/30 04:13:16;;;;;;;22.70;10.53;;;4.70;99.90;;;;;;4995217;28;20201;-67
2022/09/30 04:15:45;;;;;;;20.30;8.10;;;4.70;99.90;;;;;;4995172;28;20214;-67
2022/09/30 04:18:13;;;;;;;16.87;6.77;;;4.70;99.90;;;;;;4977987;28;20198;-67
2022/09/30 04:20:42;;;;;;;12.67;6.20;;;4.80;99.90;;;;;;4995088;28;20202;-68
2022/09/30 04:23:11;;;;;;;11.17;6.50;;;4.70;99.90;;;;;;4995028;28;20205;-69
2022/09/30 04:25:41;;;;;;;18.17;6.00;;;4.80;99.90;;;;;;4994923;28;20209;-69
2022/09/30 04:28:09;;;;;;;16.20;6.40;;;4.70;99.90;;;;;;4995006;28;20674;-69
2022/09/30 04:30:38;;;;;;;14.53;6.10;;;4.70;99.90;;;;;;4994851;28;20225;-69
2022/09/30 04:33:06;;;;;;;24.50;6.30;;;4.80;99.90;;;;;;4994970;28;20537;-66
2022/09/30 04:35:38;;;;;;;33.47;5.97;;;4.80;99.90;;;;;;4994761;28;20218;-67
2022/09/30 04:38:06;;;;;;;20.93;6.50;;;4.80;99.90;;;;;;4994143;28;20205;-67
2022/09/30 04:40:36;;;;;;;26.07;6.90;;;4.80;99.90;;;;;;4994069;28;20588;-67
2022/09/30 04:43:06;;;;;;;18.87;6.70;;;4.80;99.90;;;;;;4994720;28;20197;-69
2022/09/30 04:45:35;;;;;;;18.60;7.40;;;4.70;99.90;;;;;;4994857;28;20213;-70
2022/09/30 04:48:04;;;;;;;13.80;7.00;;;4.70;99.90;;;;;;4994672;28;20200;-68
2022/09/30 04:50:32;;;;;;;23.30;6.63;;;4.70;99.90;;;;;;4994535;28;20229;-67
2022/09/30 04:53:02;;;;;;;12.93;5.97;;;4.70;99.90;;;;;;4994550;28;20205;-68
2022/09/30 04:55:31;;;;;;;15.50;6.20;;;4.70;99.90;;;;;;4977040;28;20221;-69
2022/09/30 04:58:00;;;;;;;31.77;6.53;;;4.70;99.90;;;;;;4994527;28;20197;-68
2022/09/30 05:00:30;;;;;;;27.17;6.93;;;4.70;99.90;;;;;;4994635;28;20190;-67
2022/09/30 05:02:59;;;;;;;29.40;7.03;;;4.70;99.90;;;;;;4994314;28;20194;-70
2022/09/30 05:05:27;;;;;;;32.40;7.73;;;4.70;99.90;;;;;;4994207;28;20213;-69
2022/09/30 05:08:00;;;;;;;24.13;7.87;;;4.70;99.90;;;;;;4994120;28;20206;-70
2022/09/30 05:10:29;;;;;;;22.70;7.97;;;4.70;99.90;;;;;;4994142;28;20194;-69
2022/09/30 05:12:58;;;;;;;27.23;7.67;;;4.70;99.90;;;;;;4994166;28;20194;-68
2022/09/30 05:15:27;;;;;;;35.97;7.70;;;4.70;99.90;;;;;;4993980;28;20220;-68
2022/09/30 05:17:57;;;;;;;31.70;7.77;;;4.70;99.90;;;;;;4993895;28;20670;-69
2022/09/30 05:20:26;;;;;;;30.50;7.20;;;4.70;99.90;;;;;;4976504;28;20202;-69
2022/09/30 05:22:56;;;;;;;39.27;7.77;;;4.60;99.90;;;;;;4993966;28;20209;-67
2022/09/30 05:25:25;;;;;;;17.90;6.60;;;4.60;99.90;;;;;;4993925;28;20728;-68
2022/09/30 05:27:53;;;;;;;27.07;6.80;;;4.60;99.90;;;;;;4993815;28;20198;-67
2022/09/30 05:30:22;;;;;;;44.40;7.53;;;4.60;99.90;;;;;;4993845;28;20201;-69
2022/09/30 05:32:51;;;;;;;18.20;7.73;;;4.60;99.90;;;;;;4993713;28;20682;-68
2022/09/30 05:35:21;;;;;;;30.70;7.93;;;4.60;99.90;;;;;;4993264;28;20230;-69
2022/09/30 05:37:49;;;;;;;40.93;7.40;;;4.60;99.90;;;;;;4993734;28;20209;-69
2022/09/30 05:40:18;;;;;;;32.57;7.23;;;4.60;99.90;;;;;;4993670;28;20194;-67
2022/09/30 05:42:47;;;;;;;24.13;7.33;;;4.60;99.90;;;;;;4992918;28;20205;-67
2022/09/30 05:45:15;;;;;;;23.83;7.17;;;4.60;99.90;;;;;;4993500;28;20218;-67
2022/09/30 05:47:50;;;;;;;21.73;7.53;;;4.60;99.90;;;;;;4993528;28;20200;-68
2022/09/30 05:50:21;;;;;;;36.53;8.53;;;4.60;99.90;;;;;;4993006;28;20185;-67
2022/09/30 05:52:49;;;;;;;29.53;8.80;;;4.70;99.90;;;;;;4993465;28;20213;-68
2022/09/30 05:55:20;;;;;;;26.33;9.47;;;4.70;99.90;;;;;;4993318;28;20596;-67
2022/09/30 05:57:50;;;;;;;31.90;7.97;;;4.70;99.90;;;;;;4993374;28;20540;-66
2022/09/30 06:00:20;;;;;;;19.63;7.80;;;4.70;99.90;;;;;;4993251;28;20219;-67
2022/09/30 06:02:51;;;;;;;18.13;7.43;;;4.70;99.90;;;;;;4993263;28;20190;-67
2022/09/30 06:05:21;;;;;;;26.83;7.30;;;4.70;99.90;;;;;;4993338;28;20218;-69
2022/09/30 06:07:50;;;;;;;16.33;7.07;;;4.70;99.90;;;;;;4992874;28;20198;-67
2022/09/30 06:10:19;;;;;;;14.27;8.03;;;4.70;99.90;;;;;;4993134;28;20224;-65
2022/09/30 06:12:47;;;;;;;18.90;8.27;;;4.70;99.90;;;;;;4993030;28;20222;-67
2022/09/30 06:15:16;;;;;;;21.07;8.30;;;4.70;99.90;;;;;;4992935;28;20217;-66
2022/09/30 06:17:45;;;;;;;29.33;8.00;;;4.70;99.90;;;;;;4993166;28;20194;-65
2022/09/30 06:20:15;;;;;;;14.83;8.37;;;4.80;99.90;;;;;;4993134;28;20216;-64
2022/09/30 06:22:45;;;;;;;23.93;7.43;;;4.80;99.90;;;;;;4993076;28;20198;-65
2022/09/30 06:25:14;;;;;;;15.53;8.37;;;4.80;99.90;;;;;;4993051;28;20214;-65
2022/09/30 06:27:45;;;;;;;20.57;9.43;;;4.80;99.90;;;;;;4993090;28;20205;-64
2022/09/30 06:30:14;;;;;;;22.17;8.77;;;4.90;99.90;;;;;;4993009;28;20186;-66
2022/09/30 06:32:43;;;;;;;23.53;9.07;;;4.90;99.90;;;;;;4975412;28;20233;-65
2022/09/30 06:35:11;;;;;;;30.53;8.57;;;4.90;99.90;;;;;;4993196;28;20220;-65
2022/09/30 06:37:40;;;;;;;26.00;8.20;;;5.00;99.90;;;;;;4992816;28;20228;-65
2022/09/30 06:40:11;;;;;;;15.57;8.37;;;5.00;99.90;;;;;;4992877;28;20194;-65
2022/09/30 06:42:40;;;;;;;21.30;7.33;;;5.10;99.90;;;;;;4975523;28;20194;-66
2022/09/30 06:45:11;;;;;;;16.73;8.10;;;5.10;99.90;;;;;;4975452;28;20218;-65
2022/09/30 06:47:57;;;;;;;15.60;7.33;;;5.20;99.90;;;;;;4993114;28;20564;-66
2022/09/30 06:50:28;;;;;;;32.40;8.23;;;5.20;99.90;;;;;;4992915;28;20192;-66
2022/09/30 06:52:58;;;;;;;21.53;8.40;;;5.20;99.90;;;;;;4975386;28;20241;-66
2022/09/30 06:55:29;;;;;;;13.47;7.80;;;5.20;99.90;;;;;;4992689;28;20213;-66
2022/09/30 06:57:57;;;;;;;19.93;8.83;;;5.20;99.90;;;;;;4992690;28;20205;-66
2022/09/30 07:00:27;;;;;;;23.53;9.23;;;5.30;99.90;;;;;;4994347;28;20209;-65
2022/09/30 07:02:56;;;;;;;16.50;8.80;;;5.30;99.90;;;;;;4996199;28;20225;-66
2022/09/30 07:05:25;;;;;;;21.43;8.47;;;5.40;99.90;;;;;;4996464;28;20228;-65
2022/09/30 07:07:55;;;;;;;45.93;13.40;;;5.40;99.90;;;;;;4996487;28;20194;-65
2022/09/30 07:10:23;;;;;;;25.80;10.17;;;5.40;99.90;;;;;;4996523;28;20201;-65
2022/09/30 07:12:54;;;;;;;31.80;10.33;;;5.50;99.90;;;;;;4996397;28;20217;-66
2022/09/30 07:15:23;;;;;;;42.27;12.83;;;5.50;99.90;;;;;;4996440;28;20221;-66
2022/09/30 07:17:52;;;;;;;24.87;10.90;;;5.50;99.90;;;;;;4996745;28;20197;-65
2022/09/30 07:20:21;;;;;;;42.70;11.87;;;5.50;99.90;;;;;;4996226;28;20206;-65
2022/09/30 07:22:50;;;;;;;33.13;10.90;;;5.60;99.90;;;;;;4995599;28;20678;-66
2022/09/30 07:25:19;;;;;;;17.40;9.47;;;5.60;99.90;;;;;;4996091;28;20221;-66
2022/09/30 07:27:47;;;;;;;55.80;11.57;;;5.70;99.90;;;;;;4996193;28;20186;-66
2022/09/30 07:30:18;;;;;;;18.27;11.00;;;5.70;99.90;;;;;;4996131;28;20202;-65
2022/09/30 07:32:54;;;;;;;20.87;11.27;;;5.70;99.90;;;;;;4996044;28;20713;-65
2022/09/30 07:35:23;;;;;;;28.17;9.67;;;5.70;99.90;;;;;;4995984;28;20218;-65
2022/09/30 07:37:52;;;;;;;20.20;10.13;;;5.80;99.90;;;;;;4996050;28;20220;-65
2022/09/30 07:40:20;;;;;;;27.67;12.23;;;5.80;99.90;;;;;;4995900;28;20202;-64
2022/09/30 07:42:49;;;;;;;25.67;11.07;;;5.90;99.90;;;;;;4995933;28;20201;-65
2022/09/30 07:45:19;;;;;;;30.17;13.47;;;5.90;99.90;;;;;;4995717;28;20581;-65
2022/09/30 07:47:48;;;;;;;31.70;12.53;;;6.00;99.90;;;;;;4995357;28;20708;-64
2022/09/30 07:50:21;;;;;;;22.77;15.60;;;6.10;99.90;;;;;;4995854;28;20190;-64
2022/09/30 07:52:50;;;;;;;25.30;20.30;;;6.20;99.90;;;;;;4995596;28;20241;-65
2022/09/30 07:55:18;;;;;;;21.73;10.53;;;6.20;99.90;;;;;;4995555;28;20214;-65
2022/09/30 07:57:48;;;;;;;14.73;8.70;;;6.20;99.90;;;;;;4995580;28;20198;-66
2022/09/30 08:00:16;;;;;;;17.60;10.60;;;6.20;99.90;;;;;;4995525;28;20205;-65
2022/09/30 08:03:06;;;;;;;13.77;9.73;;;6.30;99.90;;;;;;4995534;28;20631;-66
2022/09/30 08:05:39;;;;;;;20.47;9.90;;;6.40;99.90;;;;;;4995318;28;20214;-66
2022/09/30 08:08:08;;;;;;;12.87;8.03;;;6.40;99.90;;;;;;4994667;28;20209;-66
2022/09/30 08:10:36;;;;;;;10.83;7.90;;;6.50;99.90;;;;;;4995309;28;20673;-65
2022/09/30 08:13:05;;;;;;;15.03;9.00;;;6.60;99.90;;;;;;4994264;28;20583;-65
2022/09/30 08:15:34;;;;;;;13.47;7.63;;;6.70;99.90;;;;;;4995220;28;20595;-65
2022/09/30 08:18:02;;;;;;;9.57;7.00;;;6.80;99.90;;;;;;4995254;28;20202;-66
2022/09/30 08:20:33;;;;;;;13.00;7.40;;;6.90;99.90;;;;;;4995216;28;20194;-64
2022/09/30 08:23:01;;;;;;;11.03;8.33;;;7.00;99.90;;;;;;4995545;28;20209;-65
2022/09/30 08:25:30;;;;;;;16.73;7.30;;;7.10;99.90;;;;;;4994949;28;20225;-65
2022/09/30 08:27:58;;;;;;;11.67;7.40;;;7.20;99.90;;;;;;4995011;28;20190;-65
2022/09/30 08:30:27;;;;;;;9.37;8.00;;;7.20;99.90;;;;;;4994972;28;20281;-65
2022/09/30 08:32:57;;;;;;;19.93;8.60;;;7.20;99.90;;;;;;4994831;28;20198;-66
2022/09/30 08:35:26;;;;;;;10.37;7.97;;;7.30;99.90;;;;;;4994901;28;20224;-65
2022/09/30 08:37:56;;;;;;;10.87;7.07;;;7.40;99.90;;;;;;4994851;28;20214;-66
2022/09/30 08:40:27;;;;;;;10.27;8.10;;;7.50;99.90;;;;;;4995225;28;20198;-65
2022/09/30 08:43:12;;;;;;;8.70;7.40;;;7.60;99.90;;;;;;4994799;28;20190;-66
2022/09/30 08:45:50;;;;;;;9.93;8.10;;;7.70;99.90;;;;;;4977324;28;20209;-66
2022/09/30 08:48:32;;;;;;;7.77;6.97;;;7.80;99.90;;;;;;4994654;28;20190;-66
2022/09/30 08:51:08;;;;;;;8.60;7.70;;;8.00;99.90;;;;;;4994635;28;20190;-65
2022/09/30 08:53:42;;;;;;;8.83;7.40;;;8.10;99.90;;;;;;4994532;28;20674;-66
2022/09/30 08:56:19;;;;;;;12.67;8.90;;;8.10;99.90;;;;;;4994553;28;20578;-65
2022/09/30 08:58:49;;;;;;;9.57;8.03;;;8.10;99.90;;;;;;4993763;28;20202;-66
2022/09/30 09:01:24;;;;;;;10.67;8.17;;;8.10;99.90;;;;;;4994421;28;20190;-66
2022/09/30 09:03:53;;;;;;;9.93;8.23;;;8.20;99.90;;;;;;4994497;28;20197;-65
2022/09/30 09:06:30;;;;;;;11.10;8.63;;;8.30;99.90;;;;;;4994297;28;20213;-65
2022/09/30 09:09:31;;;;;;;9.27;7.57;;;8.30;99.90;;;;;;4994255;28;20205;-65
2022/09/30 09:12:13;;;;;;;10.57;8.00;;;8.40;99.90;;;;;;4988702;28;20201;-65
2022/09/30 09:14:52;;;;;;;9.23;7.30;;;8.40;99.90;;;;;;4993167;28;20248;-66
2022/09/30 09:17:32;;;;;;;7.60;6.53;;;8.50;99.90;;;;;;4994125;28;20642;-66
2022/09/30 09:20:08;;;;;;;9.13;7.30;;;8.60;99.90;;;;;;4994054;28;20190;-66
2022/09/30 09:22:37;;;;;;;9.90;7.23;;;8.70;99.90;;;;;;4993889;28;20197;-66
2022/09/30 09:25:06;;;;;;;8.87;7.13;;;8.70;99.90;;;;;;4993895;28;20214;-66
2022/09/30 09:27:45;;;;;;;7.13;6.33;;;8.70;99.90;;;;;;4993976;28;20194;-67
2022/09/30 09:30:16;;;;;;;8.23;6.80;;;8.80;99.90;;;;;;4993997;28;20190;-66
2022/09/30 09:32:51;;;;;;;6.73;6.10;;;9.00;99.90;;;;;;4993976;28;20593;-67
2022/09/30 09:35:31;;;;;;;7.93;7.13;;;9.20;99.90;;;;;;4993355;28;20248;-66
2022/09/30 09:38:24;;;;;;;8.20;6.93;;;9.30;99.90;;;;;;4993668;28;20201;-67
2022/09/30 09:41:06;;;;;;;7.93;6.80;;;9.30;99.90;;;;;;4993656;28;20186;-66
2022/09/30 09:43:50;;;;;;;8.37;7.03;;;9.40;99.90;;;;;;4993823;28;20186;-65
2022/09/30 09:46:24;;;;;;;7.90;6.63;;;9.50;99.90;;;;;;4993661;28;20305;-65
2022/09/30 09:49:26;;;;;;;9.43;7.13;;;9.60;99.90;;;;;;4993718;28;20266;-66
2022/09/30 09:52:26;;;;;;;7.73;6.77;;;9.70;99.90;;;;;;4993600;28;20569;-66
2022/09/30 09:54:56;;;;;;;7.93;7.13;;;9.80;99.90;;;;;;4993334;28;20240;-65
2022/09/30 09:57:31;;;;;;;8.50;7.50;;;9.90;99.90;;;;;;4993596;28;20201;-65
2022/09/30 10:03:00;;;;;;;10.30;8.50;;;10.20;99.90;;;;;;4992366;28;20213;-66
2022/09/30 10:05:31;;;;;;;9.80;8.00;;;10.40;99.90;;;;;;4993229;28;20228;-66
2022/09/30 10:08:11;;;;;;;8.63;6.97;;;10.60;99.90;;;;;;4993191;28;20195;-66
2022/09/30 10:10:47;;;;;;;9.02;7.82;;;10.80;99.90;;;;;;4993363;28;20190;-67
2022/09/30 10:13:18;;;;;;;8.70;7.80;;;11.00;99.90;;;;;;4993485;28;20549;-65
2022/09/30 10:15:49;;;;;;;11.80;8.17;;;11.10;99.90;;;;;;4993348;28;20823;-65
2022/09/30 10:18:23;;;;;;;9.23;7.80;;;11.30;99.90;;;;;;4993234;28;20192;-65
2022/09/30 10:20:55;;;;;;;8.85;7.72;;;11.40;99.90;;;;;;4992937;28;20212;-66
2022/09/30 10:23:28;;;;;;;10.10;7.63;;;11.40;99.90;;;;;;4993176;28;20678;-65
2022/09/30 10:26:04;;;;;;;10.38;8.20;;;11.60;99.90;;;;;;4993221;28;20775;-67
2022/09/30 10:28:44;;;;;;;9.68;7.90;;;11.60;99.90;;;;;;4993226;28;20190;-66
2022/09/30 10:31:21;;;;;;;8.70;6.20;;;11.80;99.90;;;;;;4993129;28;20188;-65
2022/09/30 10:33:57;;;;;;;8.73;6.00;;;12.00;99.90;;;;;;4993106;28;20201;-66
2022/09/30 10:36:31;;;;;;;7.05;6.05;;;12.00;99.90;;;;;;4992575;28;20232;-66
2022/09/30 10:39:03;;;;;;;9.10;7.25;;;12.10;99.90;;;;;;4993011;28;20201;-66
2022/09/30 10:41:37;;;;;;;6.78;5.78;;;12.30;99.90;;;;;;4993132;28;20194;-65
2022/09/30 10:44:13;;;;;;;6.93;6.22;;;12.30;99.90;;;;;;4992994;28;20201;-66
2022/09/30 10:46:44;;;;;;;9.65;7.25;;;12.40;99.90;;;;;;4992967;28;20566;-66
2022/09/30 10:49:25;;;;;;;6.55;5.68;;;12.40;99.90;;;;;;4992564;28;20204;-66
2022/09/30 10:51:55;;;;;;;6.63;5.28;;;12.40;99.90;;;;;;4993070;28;20194;-67
2022/09/30 10:54:44;;;;;;;6.88;5.50;;;12.40;99.90;;;;;;4993110;28;20201;-66
2022/09/30 10:57:20;;;;;;;6.65;5.22;;;12.70;99.90;;;;;;4992934;28;20182;-66
2022/09/30 10:59:51;;;;;;;7.80;6.30;;;12.80;99.90;;;;;;4992427;28;20209;-66
2022/09/30 11:02:29;;;;;;;7.82;5.90;;;13.10;99.90;;;;;;4992739;28;20182;-65
2022/09/30 11:05:13;;;;;;;7.43;5.40;;;13.20;99.90;;;;;;4992688;28;20228;-66
2022/09/30 11:07:47;;;;;;;7.55;5.20;;;13.20;99.90;;;;;;4992835;28;20189;-67
2022/09/30 11:10:31;;;;;;;6.55;5.32;;;13.30;99.90;;;;;;4992783;28;20190;-66
2022/09/30 11:13:07;;;;;;;15.15;13.55;;;13.40;99.90;;;;;;4992655;28;20277;-66
2022/09/30 11:15:45;;;;;;;6.70;5.47;;;13.50;99.90;;;;;;4992587;28;20230;-66
2022/09/30 11:18:22;;;;;;;6.97;5.55;;;13.50;99.90;;;;;;4992749;28;20186;-67
2022/09/30 11:20:57;;;;;;;6.28;4.95;;;13.40;99.90;;;;;;4992694;28;20764;-66
2022/09/30 11:23:33;;;;;;;8.05;4.80;;;13.40;99.90;;;;;;4992625;28;20642;-66
2022/09/30 11:26:09;;;;;;;6.22;4.70;;;13.40;99.90;;;;;;4992490;28;20213;-66
2022/09/30 11:28:53;;;;;;;6.53;4.78;;;13.40;99.90;;;;;;4975281;28;20197;-66
2022/09/30 11:31:30;;;;;;;7.25;4.50;;;13.40;99.90;;;;;;4992504;28;20190;-65
2022/09/30 11:34:27;;;;;;;6.65;4.38;;;13.50;99.90;;;;;;4992496;28;20182;-67
2022/09/30 11:37:03;;;;;;;6.30;4.25;;;13.60;99.90;;;;;;4992403;28;20237;-66
2022/09/30 11:39:58;;;;;;;5.90;4.85;;;13.70;99.90;;;;;;4992641;28;20185;-66
2022/09/30 11:42:36;;;;;;;6.80;5.60;;;13.90;99.90;;;;;;4992539;28;20187;-66
2022/09/30 11:45:16;;;;;;;7.43;5.50;;;13.90;99.90;;;;;;4992385;28;20205;-66
2022/09/30 11:47:58;;;;;;;7.43;5.50;;;14.20;99.90;;;;;;4993260;28;20209;-67
2022/09/30 11:50:46;;;;;;;6.40;4.93;;;14.40;99.90;;;;;;4978622;28;20189;-68
2022/09/30 11:53:26;;;;;;;5.55;4.88;;;14.50;99.90;;;;;;4995783;28;20635;-68
2022/09/30 11:56:12;;;;;;;6.18;5.53;;;14.50;99.90;;;;;;4978221;28;20602;-67
2022/09/30 11:58:47;;;;;;;5.20;4.70;;;14.60;99.90;;;;;;4995621;28;20186;-66
2022/09/30 12:01:21;;;;;;;7.55;5.13;;;14.90;99.90;;;;;;4995675;28;20186;-67
2022/09/30 12:03:58;;;;;;;6.03;5.20;;;14.70;99.90;;;;;;4995591;28;20642;-67
2022/09/30 12:06:34;;;;;;;8.13;5.93;;;14.70;99.90;;;;;;4995476;28;20217;-66
2022/09/30 12:09:14;;;;;;;10.75;5.90;;;14.60;99.90;;;;;;4995565;28;20185;-67
2022/09/30 12:11:49;;;;;;;7.70;5.03;;;14.40;99.90;;;;;;4995469;28;20186;-67
2022/09/30 12:14:23;;;;;;;8.38;6.22;;;14.30;99.90;;;;;;4995556;28;20521;-66
2022/09/30 12:16:52;;;;;;;15.25;10.60;;;14.40;99.90;;;;;;4995201;28;20589;-67
2022/09/30 12:19:29;;;;;;;4.95;4.43;;;14.60;99.90;;;;;;4995466;28;20197;-67
2022/09/30 12:22:05;;;;;;;4.45;4.05;;;14.40;99.90;;;;;;4995365;28;20534;-66
2022/09/30 12:24:37;;;;;;;5.95;4.50;;;14.30;99.90;;;;;;4995316;28;20213;-67
2022/09/30 12:27:15;;;;;;;5.20;4.43;;;14.50;99.90;;;;;;4995198;28;20186;-66
2022/09/30 12:33:10;;;;;;;5.05;3.83;;;14.70;99.90;;;;;;4995044;28;20573;-66
2022/09/30 12:36:24;;;;;;;5.22;4.15;;;14.60;99.90;;;;;;4995274;28;20225;-66
2022/09/30 12:39:31;;;;;;;5.75;3.35;;;14.70;99.90;;;;;;4948287;28;20206;-66
2022/09/30 12:42:17;;;;;;;3.97;2.70;;;14.70;99.90;;;;;;4940764;28;20215;-68
2022/09/30 12:45:24;;;;;;;4.65;2.60;;;14.80;99.00;;;;;;4995033;28;20706;-67
2022/09/30 12:47:56;;;;;;;4.18;3.22;;;15.10;97.60;;;;;;4965578;28;20224;-67
2022/09/30 12:50:29;;;;;;;4.72;2.58;;;15.30;96.60;;;;;;4994776;28;20197;-66
2022/09/30 12:53:00;;;;;;;5.78;2.50;;;15.30;96.90;;;;;;4994703;28;20193;-67
2022/09/30 12:55:38;;;;;;;4.22;2.30;;;15.40;97.20;;;;;;4994741;28;20222;-67
2022/09/30 12:58:16;;;;;;;2.80;2.30;;;15.50;97.20;;;;;;4994121;28;20240;-66
2022/09/30 13:01:00;;;;;;;6.30;3.45;;;15.70;96.60;;;;;;4994720;28;20193;-66
2022/09/30 13:03:44;;;;;;;4.63;2.95;;;15.60;97.00;;;;;;4994528;28;20571;-66
2022/09/30 13:06:16;;;;;;;4.03;2.70;;;15.60;95.90;;;;;;4994367;28;20225;-67
2022/09/30 13:09:08;;;;;;;3.25;2.72;;;15.70;96.00;;;;;;4994436;28;20193;-67
2022/09/30 13:11:43;;;;;;;3.03;2.30;;;15.70;95.80;;;;;;4994323;28;20669;-67
2022/09/30 13:14:18;;;;;;;5.25;2.40;;;15.60;96.10;;;;;;4994183;28;20550;-66
2022/09/30 13:17:27;;;;;;;3.25;2.25;;;15.50;95.30;;;;;;4976885;28;20210;-65
2022/09/30 13:19:57;;;;;;;6.38;2.28;;;15.40;96.60;;;;;;5017760;23;20190;-71
2022/09/30 13:23:02;;;;;;;4.15;2.20;;;15.40;96.20;;;;;;4974505;28;20207;-70
2022/09/30 13:25:53;;;;;;;3.75;2.00;;;15.60;96.10;;;;;;4974575;28;20594;-70
2022/09/30 13:28:36;;;;;;;6.38;3.00;;;15.70;95.70;;;;;;4974817;28;20202;-70
2022/09/30 13:31:14;;;;;;;3.35;2.00;;;15.70;96.90;;;;;;4974210;28;20223;-69
2022/09/30 13:33:46;;;;;;;2.45;1.90;;;15.90;94.30;;;;;;4974747;28;20191;-68
2022/09/30 13:36:26;;;;;;;5.68;2.28;;;15.80;96.40;;;;;;4974488;28;20221;-67